Time;durP1;ratioP1;P1;durP2;ratioP2;P2;SDS_P1;SDS_P2;PMS_P1;PMS_P2;Temp;Humidity;BMP_temperature;BMP_pressure;BME280_temperature;BME280_humidity;BME280_pressure;Samples;Min_cycle;Max_cycle;Signal;HPM_P1;HPM_P2
2022/02/08 00:00:41;;;;;;;;;;;;;;;;;;5050273;28;19925;-67
2022/02/08 00:03:08;;;;;;;;;;;;;;;;;;5051297;28;19928;-67
2022/02/08 00:05:36;;;;;;;;;;;;;;;;;;5050955;28;19924;-68
2022/02/08 00:08:03;;;;;;;;;;;;;;;;;;5047540;28;19975;-67
2022/02/08 00:10:30;;;;;;;;;;;;;;;;;;5050513;28;19939;-67
2022/02/08 00:12:57;;;;;;;;;;;;;;;;;;5049285;28;19932;-67
2022/02/08 00:15:24;;;;;;;;;;;;;;;;;;5050251;28;20449;-67
2022/02/08 00:17:51;;;;;;;;;;;;;;;;;;5051593;28;19932;-66
2022/02/08 00:20:18;;;;;;;;;;;;;;;;;;5051289;28;19931;-67
2022/02/08 00:22:45;;;;;;;;;;;;;;;;;;5050647;28;20378;-68
2022/02/08 00:25:12;;;;;;;;;;;;;;;;;;5051072;28;19932;-67
2022/02/08 00:27:39;;;;;;;;;;;;;;;;;;5050842;28;20292;-67
2022/02/08 00:30:06;;;;;;;;;;;;;;;;;;5050496;28;19935;-68
2022/02/08 00:32:33;;;;;;;;;;;;;;;;;;5049337;28;19931;-67
2022/02/08 00:35:00;;;;;;;;;;;;;;;;;;5048042;28;19926;-67
2022/02/08 00:37:26;;;;;;;;;;;;;;;;;;5051769;28;19928;-68
2022/02/08 00:39:53;;;;;;;;;;;;;;;;;;5051349;28;19925;-68
2022/02/08 00:42:23;;;;;;;;;;;;;;;;;;5050307;28;19932;-67
2022/02/08 00:44:55;;;;;;;;;;;;;;;;;;5050010;28;20356;-67
2022/02/08 00:47:25;;;;;;;;;;;;;;;;;;5051888;28;19964;-68
2022/02/08 00:49:52;;;;;;;;;;;;;;;;;;5049842;28;19925;-67
2022/02/08 00:52:19;;;;;;;;;;;;;;;;;;5046044;28;19924;-68
2022/02/08 00:54:46;;;;;;;;;;;;;;;;;;5048736;28;19936;-67
2022/02/08 00:57:12;;;;;;;;;;;;;;;;;;5047197;28;19933;-67
2022/02/08 00:59:39;;;;;;;;;;;;;;;;;;5051291;28;19932;-67
2022/02/08 01:02:06;;;;;;;;;;;;;;;;;;5048424;28;19932;-66
2022/02/08 01:04:33;;;;;;;;;;;;;;;;;;5049765;28;19928;-67
2022/02/08 01:07:00;;;;;;;;;;;;;;;;;;5048090;28;19925;-67
2022/02/08 01:09:38;;;;;;;;;;;;;;;;;;5049743;28;19932;-67
2022/02/08 01:12:05;;;;;;;;;;;;;;;;;;5050889;28;19929;-67
2022/02/08 01:14:37;;;;;;;;;;;;;;;;;;5049723;28;20383;-66
2022/02/08 01:17:04;;;;;;;;;;;;;;;;;;5050196;28;19929;-67
2022/02/08 01:19:31;;;;;;;;;;;;;;;;;;5050096;28;19925;-67
2022/02/08 01:21:58;;;;;;;;;;;;;;;;;;5049253;28;19928;-67
2022/02/08 01:24:25;;;;;;;;;;;;;;;;;;5051102;28;19925;-67
2022/02/08 01:27:00;;;;;;;;;;;;;;;;;;5049516;28;20003;-67
2022/02/08 01:29:37;;;;;;;;;;;;;;;;;;5047164;28;19925;-68
2022/02/08 01:32:16;;;;;;;;;;;;;;;;;;5050823;28;19976;-67
2022/02/08 01:34:56;;;;;;;;;;;;;;;;;;5046171;28;19929;-67
2022/02/08 01:37:28;;;;;;;;;;;;;;;;;;5044874;28;20003;-67
2022/02/08 01:40:05;;;;;;;;;;;;;;;;;;5047830;28;20036;-67
2022/02/08 01:42:40;;;;;;;;;;;;;;;;;;5045634;28;20479;-67
2022/02/08 01:45:25;;;;;;;;;;;;;;;;;;5049677;28;20015;-67
2022/02/08 01:48:04;;;;;;;;;;;;;;;;;;5081427;22;19948;-65
2022/02/08 01:50:31;;;;;;;;;;;;;;;;;;5091903;28;19990;-65
2022/02/08 01:52:58;;;;;;;;;;;;;;;;;;5090122;28;19962;-65
2022/02/08 01:55:25;;;;;;;;;;;;;;;;;;5090161;28;20396;-65
2022/02/08 01:57:52;;;;;;;;;;;;;;;;;;5084961;28;19924;-65
2022/02/08 02:00:19;;;;;;;;;;;;;;;;;;5089408;28;19947;-65
2022/02/08 02:02:46;;;;;;;;;;;;;;;;;;5091549;28;19924;-66
2022/02/08 02:05:12;;;;;;;;;;;;;;;;;;5086790;28;20024;-65
2022/02/08 02:07:46;;;;;;;;;;;;;;;;;;5089434;28;19924;-65
2022/02/08 02:10:13;;;;;;;;;;;;;;;;;;5091620;28;20382;-65
2022/02/08 02:12:41;;;;;;;;;;;;;;;;;;5091647;28;20373;-65
2022/02/08 02:15:08;;;;;;;;;;;;;;;;;;5090104;28;20010;-65
2022/02/08 02:17:35;;;;;;;;;;;;;;;;;;5091455;28;20305;-65
2022/02/08 02:20:02;;;;;;;;;;;;;;;;;;5091014;28;20011;-65
2022/02/08 02:22:29;;;;;;;;;;;;;;;;;;5091823;28;20186;-65
2022/02/08 02:24:56;;;;;;;;;;;;;;;;;;5088868;28;19939;-65
2022/02/08 02:27:23;;;;;;;;;;;;;;;;;;5087947;28;19928;-65
2022/02/08 02:29:50;;;;;;;;;;;;;;;;;;5090695;28;19931;-65
2022/02/08 02:32:17;;;;;;;;;;;;;;;;;;5092353;28;19932;-65
2022/02/08 02:34:44;;;;;;;;;;;;;;;;;;5084942;28;20546;-65
2022/02/08 02:37:11;;;;;;;;;;;;;;;;;;5091771;28;19923;-65
2022/02/08 02:39:38;;;;;;;;;;;;;;;;;;5089403;28;19962;-65
2022/02/08 02:42:05;;;;;;;;;;;;;;;;;;5085323;28;19928;-65
2022/02/08 02:44:34;;;;;;;;;;;;;;;;;;5076770;28;21486;-65
2022/02/08 02:47:01;;;;;;;;;;;;;;;;;;5088750;28;19924;-65
2022/02/08 02:49:28;;;;;;;;;;;;;;;;;;5094873;28;19928;-65
2022/02/08 02:51:55;;;;;;;;;;;;;;;;;;5091056;28;19924;-65
2022/02/08 02:54:22;;;;;;;;;;;;;;;;;;5088415;28;19932;-65
2022/02/08 02:56:49;;;;;;;;;;;;;;;;;;5089706;28;19925;-65
2022/02/08 02:59:17;;;;;;;;;;;;;;;;;;5087616;28;20021;-66
2022/02/08 03:01:56;;;;;;;;;;;;;;;;;;5090548;28;19970;-65
2022/02/08 03:04:31;;;;;;;;;;;;;;;;;;5084564;28;19924;-65
2022/02/08 03:20:55;;;;;;;;;;;;;;;;;;5073204;28;20377;-65
2022/02/08 03:23:21;;;;;;;;;;;;;;;;;;5087861;28;19928;-65
2022/02/08 03:25:48;;;;;;;;;;;;;;;;;;5086221;28;19932;-66
2022/02/08 03:28:15;;;;;;;;;;;;;;;;;;5086036;28;19934;-66
2022/02/08 03:30:42;;;;;;;;;;;;;;;;;;5082082;28;20372;-66
2022/02/08 03:33:09;;;;;;;;;;;;;;;;;;5086358;28;19931;-66
2022/02/08 03:35:36;;;;;;;;;;;;;;;;;;5094781;28;19924;-66
2022/02/08 03:38:06;;;;;;;;;;;;;;;;;;5091325;28;19928;-65
2022/02/08 03:40:40;;;;;;;;;;;;;;;;;;5090994;28;20421;-65
2022/02/08 03:45:56;;;;;;;;;;;;;;;;;;5082808;28;19924;-65
2022/02/08 03:48:25;;;;;;;;;;;;;;;;;;5090139;28;20014;-65
2022/02/08 03:50:54;;;;;;;;;;;;;;;;;;5089811;28;19969;-65
2022/02/08 03:53:21;;;;;;;;;;;;;;;;;;5086611;28;19977;-65
2022/02/08 03:55:48;;;;;;;;;;;;;;;;;;5088723;28;20400;-65
2022/02/08 03:58:15;;;;;;;;;;;;;;;;;;5092643;28;20352;-64
2022/02/08 04:01:04;;;;;;;;;;;;;;;;;;5086424;28;19924;-65
2022/02/08 04:03:33;;;;;;;;;;;;;;;;;;5083253;28;20011;-65
2022/02/08 04:06:01;;;;;;;;;;;;;;;;;;5090920;28;19925;-65
2022/02/08 04:08:29;;;;;;;;;;;;;;;;;;5086911;28;19928;-65
2022/02/08 04:10:58;;;;;;;;;;;;;;;;;;5094264;28;20022;-65
2022/02/08 04:13:34;;;;;;;;;;;;;;;;;;5097450;28;19978;-65
2022/02/08 04:16:08;;;;;;;;;;;;;;;;;;5087351;28;19924;-65
2022/02/08 04:32:24;;;;;;;;;;;;;;;;;;5085698;28;19958;-66
2022/02/08 04:35:21;;;;;;;;;;;;;;;;;;5090237;28;20030;-66
2022/02/08 04:38:00;;;;;;;;;;;;;;;;;;5093541;28;19939;-66
2022/02/08 04:40:47;;;;;;;;;;;;;;;;;;5092207;28;19976;-65
2022/02/08 04:46:02;;;;;;;;;;;;;;;;;;5089583;28;19925;-64
2022/02/08 04:48:46;;;;;;;;;;;;;;;;;;5089771;28;19924;-65
2022/02/08 04:51:22;;;;;;;;;;;;;;;;;;5091481;28;20343;-65
2022/02/08 04:53:56;;;;;;;;;;;;;;;;;;5087631;28;19924;-65
2022/02/08 04:56:34;;;;;;;;;;;;;;;;;;5092785;28;19924;-66
2022/02/08 04:59:21;;;;;;;;;;;;;;;;;;5085713;28;19928;-65
2022/02/08 05:02:21;;;;;;;;;;;;;;;;;;5090563;28;21726;-66
2022/02/08 05:27:39;;;;;;;;;;;;;;;;;;5089049;28;20411;-66
2022/02/08 05:35:29;;;;;;;;;;;;;;;;;;5084727;28;19919;-66
2022/02/08 05:43:38;;;;;;;;;;;;;;;;;;5060137;28;20401;-66
2022/02/08 05:46:43;;;;;;;;;;;;;;;;;;5088553;28;19924;-65
2022/02/08 05:49:05;;;;;;;;;;;;;;;;;;5090077;28;20022;-66
2022/02/08 05:51:56;;;;;;;;;;;;;;;;;;5090958;28;19950;-65
2022/02/08 05:54:23;;;;;;;;;;;;;;;;;;5082955;28;19928;-66
2022/02/08 05:56:53;;;;;;;;;;;;;;;;;;5083145;28;19924;-66
2022/02/08 05:59:20;;;;;;;;;;;;;;;;;;5089693;28;19928;-66
2022/02/08 06:01:47;;;;;;;;;;;;;;;;;;5086761;28;20305;-66
2022/02/08 06:04:14;;;;;;;;;;;;;;;;;;5083200;28;19947;-66
2022/02/08 06:06:41;;;;;;;;;;;;;;;;;;5089632;28;20013;-66
2022/02/08 06:09:08;;;;;;;;;;;;;;;;;;5090155;28;19928;-66
2022/02/08 06:11:37;;;;;;;;;;;;;;;;;;5090865;28;19934;-66
2022/02/08 06:14:04;;;;;;;;;;;;;;;;;;5088927;28;20285;-65
2022/02/08 06:16:31;;;;;;;;;;;;;;;;;;5089217;28;19983;-66
2022/02/08 06:18:58;;;;;;;;;;;;;;;;;;5086875;28;20018;-66
2022/02/08 06:21:25;;;;;;;;;;;;;;;;;;5089981;28;19935;-66
2022/02/08 06:23:52;;;;;;;;;;;;;;;;;;5089240;28;19924;-66
2022/02/08 06:26:21;;;;;;;;;;;;;;;;;;5083089;28;20273;-66
2022/02/08 06:28:56;;;;;;;;;;;;;;;;;;5088489;28;19928;-66
2022/02/08 06:31:23;;;;;;;;;;;;;;;;;;5085664;28;19931;-66
2022/02/08 06:33:50;;;;;;;;;;;;;;;;;;5090962;28;19924;-66
2022/02/08 06:36:17;;;;;;;;;;;;;;;;;;5087489;28;19928;-66
2022/02/08 06:38:44;;;;;;;;;;;;;;;;;;5090725;28;20305;-66
2022/02/08 06:41:12;;;;;;;;;;;;;;;;;;5099836;28;19974;-66
2022/02/08 06:43:39;;;;;;;;;;;;;;;;;;5087582;28;19931;-66
2022/02/08 06:46:06;;;;;;;;;;;;;;;;;;5089828;28;19954;-66
2022/02/08 06:48:33;;;;;;;;;;;;;;;;;;5093580;28;19938;-66
2022/02/08 06:51:00;;;;;;;;;;;;;;;;;;5088701;28;19925;-66
2022/02/08 06:53:27;;;;;;;;;;;;;;;;;;5087925;28;20273;-65
2022/02/08 06:55:54;;;;;;;;;;;;;;;;;;5089582;28;20422;-65
2022/02/08 06:58:24;;;;;;;;;;;;;;;;;;5087645;28;20303;-65
2022/02/08 07:00:58;;;;;;;;;;;;;;;;;;5087101;28;19932;-66
2022/02/08 07:03:25;;;;;;;;;;;;;;;;;;5090484;28;19935;-66
2022/02/08 07:05:52;;;;;;;;;;;;;;;;;;5088063;28;20297;-68
2022/02/08 07:08:19;;;;;;;;;;;;;;;;;;5092834;28;19924;-68
2022/02/08 07:10:46;;;;;;;;;;;;;;;;;;5086391;28;19935;-68
2022/02/08 07:13:15;;;;;;;;;;;;;;;;;;5078487;28;19925;-68
2022/02/08 07:15:42;;;;;;;;;;;;;;;;;;5088480;28;19931;-69
2022/02/08 07:18:09;;;;;;;;;;;;;;;;;;5082495;28;19974;-69
2022/02/08 07:20:36;;;;;;;;;;;;;;;;;;5068474;28;19932;-69
2022/02/08 07:23:03;;;;;;;;;;;;;;;;;;5083565;28;19932;-68
2022/02/08 07:25:29;;;;;;;;;;;;;;;;;;5084205;28;19924;-68
2022/02/08 07:27:56;;;;;;;;;;;;;;;;;;5083431;28;19928;-68
2022/02/08 07:30:23;;;;;;;;;;;;;;;;;;5078922;28;19924;-68
2022/02/08 07:32:53;;;;;;;;;;;;;;;;;;5080513;28;20293;-68
2022/02/08 07:35:28;;;;;;;;;;;;;;;;;;5089529;28;20014;-67
2022/02/08 07:38:03;;;;;;;;;;;;;;;;;;5076949;28;20027;-68
2022/02/08 07:41:35;;;;;;;;;;;;;;;;;;5079732;28;19931;-68
2022/02/08 07:43:28;;;;;;;;;;;;;;;;;;5085548;28;19935;-68
2022/02/08 07:45:56;;;;;;;;;;;;;;;;;;5084560;28;20297;-68
2022/02/08 07:48:23;;;;;;;;;;;;;;;;;;5063234;22;19925;-65
2022/02/08 07:50:51;;;;;;;;;;;;;;;;;;5042019;28;19931;-66
2022/02/08 07:53:19;;;;;;;;;;;;;;;;;;5046419;28;19931;-66
2022/02/08 07:55:46;;;;;;;;;;;;;;;;;;5046471;28;19931;-66
2022/02/08 07:58:13;;;;;;;;;;;;;;;;;;5044934;28;19925;-65
2022/02/08 08:00:40;;;;;;;;;;;;;;;;;;5039816;28;20132;-65
2022/02/08 08:03:07;;;;;;;;;;;;;;;;;;5045643;28;20002;-65
2022/02/08 08:05:34;;;;;;;;;;;;;;;;;;5048267;28;20039;-66
2022/02/08 08:08:01;;;;;;;;;;;;;;;;;;5047638;28;19940;-65
2022/02/08 08:10:31;;;;;;;;;;;;;;;;;;5049510;28;19972;-65
2022/02/08 08:12:59;;;;;;;;;;;;;;;;;;5049193;28;19925;-67
2022/02/08 08:15:36;;;;;;;;;;;;;;;;;;5043975;28;19931;-66
2022/02/08 08:18:15;;;;;;;;;;;;;;;;;;5048511;28;19932;-66
2022/02/08 08:20:42;;;;;;;;;;;;;;;;;;5046231;28;20440;-65
2022/02/08 08:23:09;;;;;;;;;;;;;;;;;;5051506;28;19929;-65
2022/02/08 08:25:36;;;;;;;;;;;;;;;;;;5044699;28;19933;-65
2022/02/08 08:28:04;;;;;;;;;;;;;;;;;;5047545;28;20367;-65
2022/02/08 08:30:31;;;;;;;;;;;;;;;;;;5043763;28;19928;-66
2022/02/08 08:32:58;;;;;;;;;;;;;;;;;;5043401;28;19929;-65
2022/02/08 08:35:25;;;;;;;;;;;;;;;;;;5050822;28;19924;-65
2022/02/08 08:37:56;;;;;;;;;;;;;;;;;;5049673;28;20011;-66
2022/02/08 08:40:37;;;;;;;;;;;;;;;;;;5046557;28;19931;-66
2022/02/08 08:43:26;;;;;;;;;;;;;;;;;;5051518;28;19924;-66
2022/02/08 08:48:59;;;;;;;;;;;;;;;;;;5025142;28;19979;-66
2022/02/08 08:51:33;;;;;;;;;;;;;;;;;;5051586;28;20294;-65
2022/02/08 08:54:00;;;;;;;;;;;;;;;;;;5045016;28;19933;-65
2022/02/08 08:56:27;;;;;;;;;;;;;;;;;;5051911;28;19928;-67
2022/02/08 08:58:54;;;;;;;;;;;;;;;;;;5049460;28;19978;-65
2022/02/08 09:01:21;;;;;;;;;;;;;;;;;;5048490;28;19925;-65
2022/02/08 09:03:49;;;;;;;;;;;;;;;;;;5046548;28;19947;-66
2022/02/08 09:06:16;;;;;;;;;;;;;;;;;;5046050;28;19944;-66
2022/02/08 09:08:44;;;;;;;;;;;;;;;;;;5045155;28;19964;-65
2022/02/08 09:11:16;;;;;;;;;;;;;;;;;;5047493;28;19955;-67
2022/02/08 09:13:49;;;;;;;;;;;;;;;;;;5046342;28;19951;-66
2022/02/08 09:16:26;;;;;;;;;;;;;;;;;;5050229;28;20463;-67
2022/02/08 09:19:23;;;;;;;;;;;;;;;;;;5046933;28;20442;-66
2022/02/08 09:27:55;;;;;;;;;;;;;;;;;;4998735;28;19934;-67
2022/02/08 09:30:32;;;;;;;;;;;;;;;;;;5043877;28;19925;-65
2022/02/08 09:32:59;;;;;;;;;;;;;;;;;;5036825;28;19932;-65
2022/02/08 09:35:26;;;;;;;;;;;;;;;;;;5045437;28;20003;-67
2022/02/08 09:37:53;;;;;;;;;;;;;;;;;;5048599;28;19929;-65
2022/02/08 09:40:21;;;;;;;;;;;;;;;;;;5049173;28;19940;-65
2022/02/08 09:42:48;;;;;;;;;;;;;;;;;;5046504;28;19925;-65
2022/02/08 09:45:18;;;;;;;;;;;;;;;;;;5048153;28;19935;-66
2022/02/08 09:47:49;;;;;;;;;;;;;;;;;;5051227;28;19978;-65
2022/02/08 09:50:20;;;;;;;;;;;;;;;;;;5041222;28;20342;-66
2022/02/08 09:52:51;;;;;;;;;;;;;;;;;;5047816;28;19925;-66
2022/02/08 09:55:18;;;;;;;;;;;;;;;;;;5050564;28;19924;-66
2022/02/08 09:57:44;;;;;;;;;;;;;;;;;;5046051;28;20381;-66
2022/02/08 10:00:11;;;;;;;;;;;;;;;;;;5048862;28;19975;-65
2022/02/08 10:02:38;;;;;;;;;;;;;;;;;;5046018;28;19932;-65
2022/02/08 10:05:05;;;;;;;;;;;;;;;;;;5049228;28;19940;-66
2022/02/08 10:07:33;;;;;;;;;;;;;;;;;;5045964;28;19924;-65
2022/02/08 10:10:00;;;;;;;;;;;;;;;;;;5047141;28;19987;-66
2022/02/08 10:12:32;;;;;;;;;;;;;;;;;;5047031;28;19925;-66
2022/02/08 10:23:13;;;;;;;;;;;;;;;;;;5047387;28;19966;-67
2022/02/08 10:25:59;;;;;;;;;;;;;;;;;;5046338;28;19932;-67
2022/02/08 10:28:32;;;;;;;;;;;;;;;;;;5047103;28;19928;-67
2022/02/08 10:31:19;;;;;;;;;;;;;;;;;;5046933;28;19935;-67
2022/02/08 10:39:24;;;;;;;;;;;;;;;;;;5046862;28;19923;-66
2022/02/08 10:41:51;;;;;;;;;;;;;;;;;;5042759;28;19929;-67
2022/02/08 10:44:18;;;;;;;;;;;;;;;;;;5045590;28;19929;-65
2022/02/08 10:46:44;;;;;;;;;;;;;;;;;;5049485;28;19936;-66
2022/02/08 10:49:11;;;;;;;;;;;;;;;;;;5038060;28;19956;-66
2022/02/08 10:51:45;;;;;;;;;;;;;;;;;;5046654;28;19925;-66
2022/02/08 10:54:16;;;;;;;;;;;;;;;;;;5046469;28;19978;-65
2022/02/08 10:56:43;;;;;;;;;;;;;;;;;;5048089;28;19925;-66
2022/02/08 10:59:17;;;;;;;;;;;;;;;;;;5046504;28;19943;-66
2022/02/08 11:01:52;;;;;;;;;;;;;;;;;;5044788;28;19925;-66
2022/02/08 11:04:30;;;;;;;;;;;;;;;;;;5046715;28;20356;-66
2022/02/08 11:07:10;;;;;;;;;;;;;;;;;;5045485;28;19933;-67
2022/02/08 11:09:44;;;;;;;;;;;;;;;;;;5044354;28;19929;-67
2022/02/08 11:12:19;;;;;;;;;;;;;;;;;;5045696;28;19940;-66
2022/02/08 11:14:59;;;;;;;;;;;;;;;;;;5046887;28;20444;-66
2022/02/08 11:17:59;;;;;;;;;;;;;;;;;;5042769;28;20029;-68
2022/02/08 11:20:28;;;;;;;;;;;;;;;;;;5043970;28;20421;-67
2022/02/08 11:22:59;;;;;;;;;;;;;;;;;;5046838;28;19928;-66
2022/02/08 11:25:28;;;;;;;;;;;;;;;;;;5048467;28;19933;-66
2022/02/08 11:27:58;;;;;;;;;;;;;;;;;;5046299;28;19924;-66
2022/02/08 11:30:25;;;;;;;;;;;;;;;;;;5047216;28;19925;-67
2022/02/08 11:33:04;;;;;;;;;;;;;;;;;;5048120;28;19983;-67
2022/02/08 11:44:12;;;;;;;;;;;;;;;;;;5044598;28;20333;-66
2022/02/08 11:46:56;;;;;;;;;;;;;;;;;;5047479;28;19924;-68
2022/02/08 11:49:41;;;;;;;;;;;;;;;;;;5044044;28;19932;-66
2022/02/08 11:52:27;;;;;;;;;;;;;;;;;;5045180;28;20015;-68
2022/02/08 12:00:36;;;;;;;;;;;;;;;;;;5004577;28;19981;-66
2022/02/08 12:03:18;;;;;;;;;;;;;;;;;;5026843;28;20466;-66
2022/02/08 12:05:51;;;;;;;;;;;;;;;;;;5043262;28;20288;-67
2022/02/08 12:08:18;;;;;;;;;;;;;;;;;;5045455;28;19925;-67
2022/02/08 12:10:52;;;;;;;;;;;;;;;;;;5046698;28;19979;-66
2022/02/08 12:13:50;;;;;;;;;;;;;;;;;;5045796;28;19932;-67
2022/02/08 12:33:05;;;;;;;;;;;;;;;;;;5044190;28;20340;-66
2022/02/08 12:57:50;;;;;;;;;;;;;;;;;;5029767;28;20051;-66
2022/02/08 13:00:30;;;;;;;;;;;;;;;;;;5041481;28;19940;-67
2022/02/08 13:03:18;;;;;;;;;;;;;;;;;;5048223;28;19936;-67
2022/02/08 14:03:54;;;;;;;;;;;;;;;;;;5065451;28;19919;-65
2022/02/08 14:06:23;;;;;;;;;;;;;;;;;;5067849;28;20008;-64
2022/02/08 14:09:09;;;;;;;;;;;;;;;;;;5068863;28;19970;-64
2022/02/08 14:14:35;;;;;;;;;;;;;;;;;;5069011;28;20282;-64
2022/02/08 14:17:28;;;;;;;;;;;;;;;;;;5064681;28;20337;-64
2022/02/08 14:20:16;;;;;;;;;;;;;;;;;;5069342;28;20924;-64
2022/02/08 14:22:55;;;;;;;;;;;;;;;;;;5066317;28;20023;-64
2022/02/08 14:25:28;;;;;;;;;;;;;;;;;;5069467;28;19924;-65
2022/02/08 14:30:46;;;;;;;;;;;;;;;;;;5068702;28;19936;-64
2022/02/08 14:33:32;;;;;;;;;;;;;;;;;;5068500;28;19925;-64
2022/02/08 14:36:26;;;;;;;;;;;;;;;;;;5070662;28;20397;-64
2022/02/08 15:06:50;;;;;;;;;;;;;;;;;;5070389;28;20331;-64
2022/02/08 15:09:23;;;;;;;;;;;;;;;;;;5067527;28;19924;-64
2022/02/08 15:12:05;;;;;;;;;;;;;;;;;;5057348;28;20382;-63
2022/02/08 15:14:37;;;;;;;;;;;;;;;;;;5065516;28;19925;-63
2022/02/08 15:17:04;;;;;;;;;;;;;;;;;;5065992;28;19935;-64
2022/02/08 15:19:32;;;;;;;;;;;;;;;;;;5063115;28;19959;-64
2022/02/08 15:22:01;;;;;;;;;;;;;;;;;;5066383;28;19928;-62
2022/02/08 15:24:28;;;;;;;;;;;;;;;;;;5060353;28;20374;-63
2022/02/08 15:26:55;;;;;;;;;;;;;;;;;;5058161;28;19956;-64
2022/02/08 15:29:24;;;;;;;;;;;;;;;;;;5060959;28;19931;-63
2022/02/08 15:31:51;;;;;;;;;;;;;;;;;;5058933;28;20258;-63
2022/02/08 15:34:19;;;;;;;;;;;;;;;;;;5063957;28;19924;-64
2022/02/08 15:36:46;;;;;;;;;;;;;;;;;;5058735;28;19929;-63
2022/02/08 15:39:13;;;;;;;;;;;;;;;;;;5058500;28;20599;-63
2022/02/08 15:41:40;;;;;;;;;;;;;;;;;;5063501;28;20279;-62
2022/02/08 15:44:07;;;;;;;;;;;;;;;;;;5056689;28;19929;-63
2022/02/08 15:46:35;;;;;;;;;;;;;;;;;;5061312;28;20015;-63
2022/02/08 15:49:02;;;;;;;;;;;;;;;;;;5057620;28;19974;-65
2022/02/08 15:51:32;;;;;;;;;;;;;;;;;;5058911;28;19933;-65
2022/02/08 15:57:09;;;;;;;;;;;;;;;;;;5060307;28;19920;-64
2022/02/08 16:07:54;;;;;;;;;;;;;;;;;;5055428;28;19925;-65
2022/02/08 16:10:27;;;;;;;;;;;;;;;;;;5064618;28;20310;-64
2022/02/08 16:13:14;;;;;;;;;;;;;;;;;;5062037;28;19972;-65
2022/02/08 16:15:55;;;;;;;;;;;;;;;;;;5063084;28;19936;-64
2022/02/08 16:18:30;;;;;;;;;;;;;;;;;;5063693;28;19929;-64
2022/02/08 16:21:14;;;;;;;;;;;;;;;;;;5064221;28;20480;-64
2022/02/08 16:26:44;;;;;;;;;;;;;;;;;;5053756;28;19920;-65
2022/02/08 16:29:33;;;;;;;;;;;;;;;;;;5065499;28;19935;-65
2022/02/08 16:32:24;;;;;;;;;;;;;;;;;;5063608;28;19928;-64
2022/02/08 16:54:23;;;;;;;;;;;;;;;;;;5061564;28;20386;-64
2022/02/08 16:57:00;;;;;;;;;;;;;;;;;;5062292;28;19948;-64
2022/02/08 16:59:29;;;;;;;;;;;;;;;;;;5065518;28;19925;-64
2022/02/08 17:01:59;;;;;;;;;;;;;;;;;;5059236;28;20290;-63
2022/02/08 17:04:26;;;;;;;;;;;;;;;;;;5068548;28;19932;-63
2022/02/08 17:06:53;;;;;;;;;;;;;;;;;;5068652;28;20398;-63
2022/02/08 17:09:29;;;;;;;;;;;;;;;;;;5068787;28;19928;-64
2022/02/08 17:12:02;;;;;;;;;;;;;;;;;;5066445;28;19935;-64
2022/02/08 17:14:45;;;;;;;;;;;;;;;;;;5069630;28;20429;-64
2022/02/08 17:17:41;;;;;;;;;;;;;;;;;;5065212;28;20439;-64
2022/02/08 17:47:41;;;;;;;;;;;;;;;;;;5065075;28;19924;-64
2022/02/08 17:50:08;;;;;;;;;;;;;;;;;;5069498;28;19924;-63
2022/02/08 17:52:35;;;;;;;;;;;;;;;;;;5063730;28;20467;-64
2022/02/08 17:55:02;;;;;;;;;;;;;;;;;;5064221;28;19932;-65
2022/02/08 17:57:29;;;;;;;;;;;;;;;;;;5065687;28;19925;-64
2022/02/08 17:59:57;;;;;;;;;;;;;;;;;;5063278;28;20417;-64
2022/02/08 18:02:24;;;;;;;;;;;;;;;;;;5062416;28;19925;-64
2022/02/08 18:04:53;;;;;;;;;;;;;;;;;;5064191;28;20326;-63
2022/02/08 18:07:21;;;;;;;;;;;;;;;;;;5066294;28;19930;-63
2022/02/08 18:09:49;;;;;;;;;;;;;;;;;;5060967;28;19924;-63
2022/02/08 18:12:17;;;;;;;;;;;;;;;;;;5060805;28;20312;-63
2022/02/08 18:14:49;;;;;;;;;;;;;;;;;;5064662;28;19936;-65
2022/02/08 18:17:21;;;;;;;;;;;;;;;;;;5066194;28;19990;-64
2022/02/08 18:19:53;;;;;;;;;;;;;;;;;;5060958;28;19986;-63
2022/02/08 18:22:31;;;;;;;;;;;;;;;;;;5064199;28;19935;-63
2022/02/08 18:25:27;;;;;;;;;;;;;;;;;;5064669;28;19932;-64
2022/02/08 18:28:20;;;;;;;;;;;;;;;;;;5064721;28;19936;-64
2022/02/08 19:09:22;;;;;;;;;;;;;;;;;;5060944;28;19924;-63
2022/02/08 19:11:58;;;;;;;;;;;;;;;;;;5064517;28;20350;-63
2022/02/08 19:15:10;;;;;;;;;;;;;;;;;;5065915;28;19978;-64
2022/02/08 19:20:27;;;;;;;;;;;;;;;;;;4993801;28;19922;-63
2022/02/08 19:22:54;;;;;;;;;;;;;;;;;;5065381;28;19932;-63
2022/02/08 19:25:21;;;;;;;;;;;;;;;;;;5061769;28;19935;-62
2022/02/08 19:27:50;;;;;;;;;;;;;;;;;;5062119;28;20007;-63
2022/02/08 19:30:16;;;;;;;;;;;;;;;;;;5064603;28;19935;-65
2022/02/08 19:32:43;;;;;;;;;;;;;;;;;;5062636;28;19924;-65
2022/02/08 19:35:10;;;;;;;;;;;;;;;;;;5062847;28;19924;-64
2022/02/08 19:37:38;;;;;;;;;;;;;;;;;;5064793;28;19932;-63
2022/02/08 19:40:06;;;;;;;;;;;;;;;;;;5063832;28;19929;-63
2022/02/08 19:42:33;;;;;;;;;;;;;;;;;;5064947;28;20397;-63
2022/02/08 19:45:09;;;;;;;;;;;;;;;;;;5060489;28;20002;-63
2022/02/08 19:47:36;;;;;;;;;;;;;;;;;;5061592;28;19971;-63
2022/02/08 19:50:03;;;;;;;;;;;;;;;;;;5063825;28;20366;-64
2022/02/08 19:52:32;;;;;;;;;;;;;;;;;;5063344;28;19932;-63
2022/02/08 19:55:19;;;;;;;;;;;;;;;;;;5064354;28;19929;-63
2022/02/08 19:57:47;;;;;;;;;;;;;;;;;;5063494;28;20021;-64
2022/02/08 20:00:18;;;;;;;;;;;;;;;;;;5065254;28;20387;-63
2022/02/08 20:02:49;;;;;;;;;;;;;;;;;;5064201;28;21171;-62
2022/02/08 20:05:16;;;;;;;;;;;;;;;;;;5066992;28;20034;-64
2022/02/08 20:07:43;;;;;;;;;;;;;;;;;;5065472;28;19924;-63
2022/02/08 20:10:12;;;;;;;;;;;;;;;;;;5067954;28;20310;-63
2022/02/08 20:12:39;;;;;;;;;;;;;;;;;;5069721;28;19925;-64
2022/02/08 20:15:06;;;;;;;;;;;;;;;;;;5066854;28;20034;-65
2022/02/08 20:17:33;;;;;;;;;;;;;;;;;;5063535;28;20515;-64
2022/02/08 20:20:07;;;;;;;;;;;;;;;;;;5068292;28;19950;-63
2022/02/08 20:22:34;;;;;;;;;;;;;;;;;;5066325;28;19982;-63
2022/02/08 20:25:04;;;;;;;;;;;;;;;;;;5067579;28;19971;-63
2022/02/08 20:27:45;;;;;;;;;;;;;;;;;;5067269;28;20372;-63
2022/02/08 20:30:12;;;;;;;;;;;;;;;;;;5066303;28;19994;-65
2022/02/08 20:32:39;;;;;;;;;;;;;;;;;;5065036;28;20297;-64
2022/02/08 20:35:06;;;;;;;;;;;;;;;;;;5067183;28;19928;-64
2022/02/08 20:37:34;;;;;;;;;;;;;;;;;;5068475;28;19948;-64
2022/02/08 20:40:01;;;;;;;;;;;;;;;;;;5065725;28;19940;-64
2022/02/08 20:42:28;;;;;;;;;;;;;;;;;;5066239;28;20599;-64
2022/02/08 20:44:55;;;;;;;;;;;;;;;;;;5066639;28;20425;-65
2022/02/08 20:47:25;;;;;;;;;;;;;;;;;;5067088;28;19932;-64
2022/02/08 20:49:57;;;;;;;;;;;;;;;;;;5064905;28;19928;-64
2022/02/08 20:52:29;;;;;;;;;;;;;;;;;;5059730;28;19975;-64
2022/02/08 20:55:04;;;;;;;;;;;;;;;;;;5063135;28;20354;-65
2022/02/08 20:57:35;;;;;;;;;;;;;;;;;;5062190;28;19955;-64
2022/02/08 21:00:02;;;;;;;;;;;;;;;;;;5063280;28;19929;-65
2022/02/08 21:02:36;;;;;;;;;;;;;;;;;;5066927;28;20295;-64
2022/02/08 21:05:17;;;;;;;;;;;;;;;;;;5065252;28;19925;-64
2022/02/08 21:07:44;;;;;;;;;;;;;;;;;;5065277;28;19939;-64
2022/02/08 21:10:11;;;;;;;;;;;;;;;;;;5065836;28;19928;-65
2022/02/08 21:12:49;;;;;;;;;;;;;;;;;;5068715;28;20409;-63
2022/02/08 21:15:16;;;;;;;;;;;;;;;;;;5065636;28;19975;-64
2022/02/08 21:17:43;;;;;;;;;;;;;;;;;;5064835;28;20011;-64
2022/02/08 21:20:09;;;;;;;;;;;;;;;;;;5065343;28;19938;-64
2022/02/08 21:22:36;;;;;;;;;;;;;;;;;;5068574;28;19928;-63
2022/02/08 21:25:03;;;;;;;;;;;;;;;;;;5065255;28;19928;-64
2022/02/08 21:27:32;;;;;;;;;;;;;;;;;;5065330;28;19924;-65
2022/02/08 21:30:17;;;;;;;;;;;;;;;;;;5062940;28;19933;-64
2022/02/08 21:33:09;;;;;;;;;;;;;;;;;;5064115;28;19929;-65
2022/02/08 21:49:42;;;;;;;;;;;;;;;;;;5060015;28;19925;-62
2022/02/08 21:54:53;;;;;;;;;;;;;;;;;;5055330;28;20366;-62
2022/02/08 21:57:22;;;;;;;;;;;;;;;;;;5067524;28;20383;-63
2022/02/08 21:59:49;;;;;;;;;;;;;;;;;;5065691;28;19975;-62
2022/02/08 22:02:16;;;;;;;;;;;;;;;;;;5067838;28;19929;-62
2022/02/08 22:04:43;;;;;;;;;;;;;;;;;;5062741;28;19993;-63
2022/02/08 22:07:14;;;;;;;;;;;;;;;;;;5064941;28;19928;-63
2022/02/08 22:09:42;;;;;;;;;;;;;;;;;;5064215;28;20389;-63
2022/02/08 22:18:16;;;;;;;;;;;;;;;;;;5065821;28;19919;-64
2022/02/08 22:20:47;;;;;;;;;;;;;;;;;;5065478;28;19929;-63
2022/02/08 22:23:18;;;;;;;;;;;;;;;;;;5065185;28;19951;-63
2022/02/08 22:26:00;;;;;;;;;;;;;;;;;;5065402;28;19925;-63
2022/02/08 22:28:42;;;;;;;;;;;;;;;;;;5060834;28;19929;-63
2022/02/08 22:31:15;;;;;;;;;;;;;;;;;;5068165;28;19928;-64
2022/02/08 22:33:47;;;;;;;;;;;;;;;;;;5062896;28;20017;-62
2022/02/08 22:36:18;;;;;;;;;;;;;;;;;;5065534;28;19924;-64
2022/02/08 22:38:50;;;;;;;;;;;;;;;;;;5063636;28;20299;-64
2022/02/08 22:41:22;;;;;;;;;;;;;;;;;;5061709;28;20024;-63
2022/02/08 22:43:50;;;;;;;;;;;;;;;;;;5068982;28;20026;-64
2022/02/08 22:46:17;;;;;;;;;;;;;;;;;;5073145;28;20293;-64
2022/02/08 22:48:45;;;;;;;;;;;;;;;;;;5068841;28;20604;-64
2022/02/08 22:51:12;;;;;;;;;;;;;;;;;;5071150;28;19925;-65
2022/02/08 22:53:39;;;;;;;;;;;;;;;;;;5066844;28;19944;-64
2022/02/08 22:56:06;;;;;;;;;;;;;;;;;;5072968;28;19928;-65
2022/02/08 22:58:35;;;;;;;;;;;;;;;;;;5068954;28;19935;-65
2022/02/08 23:01:02;;;;;;;;;;;;;;;;;;5070494;28;19925;-64
2022/02/08 23:03:29;;;;;;;;;;;;;;;;;;5069404;28;19996;-64
2022/02/08 23:05:56;;;;;;;;;;;;;;;;;;5064487;28;19979;-64
2022/02/08 23:08:24;;;;;;;;;;;;;;;;;;5070176;28;19924;-64
2022/02/08 23:10:59;;;;;;;;;;;;;;;;;;5066729;28;19967;-64
2022/02/08 23:13:36;;;;;;;;;;;;;;;;;;5067708;28;20451;-64